createdAt,value
2023-02-28T00:00:10.126Z,9.35
2023-02-28T00:04:33.088Z,11.98
2023-02-28T00:08:36.259Z,12.18
2023-02-28T00:12:40.054Z,11.02
2023-02-28T00:20:48.147Z,12.23
2023-02-28T00:24:51.410Z,14.43
2023-02-28T00:28:57.757Z,14.40
2023-02-28T00:33:06.923Z,11.13
2023-02-28T00:37:13.304Z,11.25
2023-02-28T00:41:18.499Z,13.32
2023-02-28T00:45:21.485Z,15.10
2023-02-28T00:49:27.527Z,11.40
2023-02-28T00:53:31.330Z,10.07
2023-02-28T00:57:34.383Z,10.32
2023-02-28T01:01:37.724Z,10.57
2023-02-28T01:05:42.764Z,13.15
2023-02-28T01:09:47.786Z,10.95
2023-02-28T01:13:50.771Z,17.83
2023-02-28T01:17:53.842Z,14.50
2023-02-28T01:21:58.429Z,17.65
2023-02-28T01:26:08.244Z,16.13
2023-02-28T01:30:12.666Z,18.40
2023-02-28T01:34:15.501Z,13.48
2023-02-28T01:38:22.949Z,13.00
2023-02-28T01:42:26.596Z,12.38
2023-02-28T01:46:48.510Z,16.67
2023-02-28T01:50:52.440Z,14.02
2023-02-28T01:54:59.180Z,11.80
2023-02-28T01:59:02.442Z,14.77
2023-02-28T02:03:11.241Z,10.45
2023-02-28T02:07:16.131Z,14.88
2023-02-28T02:11:24.580Z,13.38
2023-02-28T02:15:35.319Z,10.73
2023-02-28T02:20:05.893Z,17.40
2023-02-28T02:24:41.506Z,15.55
2023-02-28T02:29:09.990Z,16.60
2023-02-28T02:33:41.646Z,16.45
2023-02-28T02:37:54.055Z,15.18
2023-02-28T02:42:02.293Z,17.83
2023-02-28T02:46:12.204Z,16.85
2023-02-28T02:50:21.884Z,14.30
2023-02-28T02:54:35.032Z,17.27
2023-02-28T02:58:44.063Z,16.15
2023-02-28T03:02:50.022Z,14.98
2023-02-28T03:06:55.968Z,16.83
2023-02-28T03:11:02.739Z,20.23
2023-02-28T03:15:16.301Z,19.88
2023-02-28T03:19:32.136Z,16.20
2023-02-28T03:23:41.225Z,19.13
2023-02-28T03:32:02.233Z,15.15
2023-02-28T03:36:09.769Z,14.15
2023-02-28T03:40:16.067Z,18.33
2023-02-28T03:44:26.716Z,14.30
2023-02-28T03:48:37.298Z,17.48
2023-02-28T03:52:43.876Z,18.08
2023-02-28T03:56:54.207Z,20.05
2023-02-28T04:01:09.824Z,21.15
2023-02-28T04:05:12.792Z,18.17
2023-02-28T04:09:17.582Z,25.17
2023-02-28T04:13:21.683Z,22.70
2023-02-28T04:17:26.333Z,22.60
2023-02-28T04:21:29.890Z,14.75
2023-02-28T04:25:33.326Z,14.38
2023-02-28T04:29:38.422Z,17.77
2023-02-28T04:33:44.928Z,16.90
2023-02-28T04:37:48.286Z,14.70
2023-02-28T04:41:51.576Z,14.85
2023-02-28T04:45:55.693Z,19.85
2023-02-28T04:50:00.426Z,19.55
2023-02-28T04:54:03.375Z,19.00
2023-02-28T04:58:07.180Z,16.27
2023-02-28T05:02:11.268Z,20.90
2023-02-28T05:06:19.790Z,23.23
2023-02-28T05:10:22.181Z,23.35
2023-02-28T05:14:28.086Z,23.02
2023-02-28T05:18:31.686Z,18.30
2023-02-28T05:22:36.093Z,27.05
2023-02-28T05:26:41.282Z,25.10
2023-02-28T05:30:44.484Z,25.42
2023-02-28T05:34:49.338Z,20.17
2023-02-28T05:38:54.567Z,24.60
2023-02-28T05:42:58.777Z,21.73
2023-02-28T05:47:01.265Z,24.35
2023-02-28T05:51:04.426Z,17.17
2023-02-28T05:55:09.997Z,27.17
2023-02-28T05:59:13.074Z,23.13
2023-02-28T06:03:16.451Z,20.40
2023-02-28T06:07:19.755Z,18.38
2023-02-28T06:11:28.883Z,19.05
2023-02-28T06:15:32.373Z,20.10
2023-02-28T06:19:36.109Z,17.70
2023-02-28T06:23:39.200Z,18.48
2023-02-28T06:27:42.984Z,15.65
2023-02-28T06:31:46.280Z,19.67
2023-02-28T06:35:49.780Z,18.38
2023-02-28T06:39:53.441Z,16.70
2023-02-28T06:48:04.823Z,21.05
2023-02-28T06:52:08.156Z,17.30
2023-02-28T07:00:18.053Z,19.58
2023-02-28T07:04:24.187Z,17.42
2023-02-28T07:08:29.946Z,16.90
2023-02-28T07:12:35.467Z,16.17
2023-02-28T07:16:39.898Z,16.83
2023-02-28T07:20:43.778Z,16.70
2023-02-28T07:24:46.824Z,17.35
2023-02-28T07:28:50.588Z,17.17
2023-02-28T07:32:55.875Z,14.63
2023-02-28T07:36:58.936Z,16.83
2023-02-28T07:41:01.916Z,10.82
2023-02-28T07:45:08.184Z,12.93
2023-02-28T07:49:12.713Z,10.13
2023-02-28T07:53:15.548Z,8.95
2023-02-28T07:57:18.754Z,9.40
2023-02-28T08:01:21.831Z,8.77
2023-02-28T08:05:28.726Z,7.60
2023-02-28T08:09:32.276Z,10.50
2023-02-28T08:13:36.050Z,9.82
2023-02-28T08:17:39.291Z,10.18
2023-02-28T08:21:49.678Z,7.90
2023-02-28T08:25:57.083Z,8.30
2023-02-28T08:30:02.475Z,8.65
2023-02-28T08:34:08.741Z,7.63
2023-02-28T08:38:13.304Z,9.10
2023-02-28T08:42:16.553Z,8.15
2023-02-28T08:46:22.418Z,10.68
2023-02-28T08:50:25.803Z,8.55
2023-02-28T08:54:32.708Z,9.88
2023-02-28T08:58:36.206Z,9.07
2023-02-28T09:02:39.264Z,8.50
2023-02-28T09:06:42.263Z,11.73
2023-02-28T09:10:47.197Z,6.93
2023-02-28T09:14:50.111Z,9.20
2023-02-28T09:18:55.653Z,7.55
2023-02-28T09:22:59.994Z,8.07
2023-02-28T09:27:05.504Z,10.05
2023-02-28T09:31:22.095Z,9.00
2023-02-28T09:35:28.622Z,10.73
2023-02-28T09:39:32.963Z,9.05
2023-02-28T09:43:43.966Z,8.95
2023-02-28T09:47:49.194Z,11.70
2023-02-28T09:52:00.002Z,9.32
2023-02-28T09:56:07.008Z,8.07
2023-02-28T10:00:19.928Z,11.23
2023-02-28T10:04:39.822Z,10.90
2023-02-28T10:08:51.814Z,8.45
2023-02-28T10:13:01.225Z,9.27
2023-02-28T10:17:11.323Z,8.13
2023-02-28T10:21:23.529Z,8.07
2023-02-28T10:25:29.398Z,7.78
2023-02-28T10:29:35.508Z,8.32
2023-02-28T10:33:40.954Z,7.63
2023-02-28T10:37:46.326Z,8.73
2023-02-28T10:41:50.124Z,9.35
2023-02-28T10:46:03.704Z,8.82
2023-02-28T10:50:28.927Z,9.18
2023-02-28T10:54:36.515Z,11.27
2023-02-28T10:58:50.983Z,7.57
2023-02-28T11:02:54.449Z,9.48
2023-02-28T11:07:04.921Z,8.52
2023-02-28T11:11:09.248Z,7.60
2023-02-28T11:15:26.710Z,6.88
2023-02-28T11:19:35.033Z,9.93
2023-02-28T11:23:44.561Z,7.85
2023-02-28T11:27:50.771Z,9.90
2023-02-28T11:32:15.394Z,10.48
2023-02-28T11:36:25.837Z,10.02
2023-02-28T11:40:41.786Z,10.95
2023-02-28T11:45:12.356Z,9.07
2023-02-28T11:49:28.757Z,11.07
2023-02-28T11:53:49.774Z,14.40
2023-02-28T11:58:37.621Z,10.70
2023-02-28T12:02:57.606Z,10.35
2023-02-28T12:07:06.332Z,11.25
2023-02-28T12:11:16.410Z,10.60
2023-02-28T12:15:49.707Z,11.82
2023-02-28T12:20:02.734Z,12.80
2023-02-28T12:24:29.602Z,11.80
2023-02-28T12:28:37.625Z,11.70
2023-02-28T12:32:45.386Z,13.05
2023-02-28T12:36:51.276Z,8.05
2023-02-28T12:40:59.091Z,11.00
2023-02-28T12:45:10.344Z,11.25
2023-02-28T12:49:19.295Z,15.10
2023-02-28T12:53:30.120Z,11.13
2023-02-28T12:57:38.884Z,14.70
2023-02-28T13:01:54.836Z,14.27
2023-02-28T13:06:21.087Z,11.98
2023-02-28T13:10:24.838Z,16.63
2023-02-28T13:14:38.018Z,11.18
2023-02-28T13:18:45.195Z,11.73
2023-02-28T13:22:53.946Z,13.20
2023-02-28T13:27:33.829Z,11.93
2023-02-28T13:32:30.330Z,14.80
2023-02-28T13:36:35.356Z,11.93
2023-02-28T13:40:39.811Z,12.85
2023-02-28T13:45:13.544Z,12.50
2023-02-28T13:49:29.100Z,13.65
2023-02-28T13:54:00.642Z,13.40
2023-02-28T13:58:20.469Z,14.82
2023-02-28T14:02:52.512Z,15.70
2023-02-28T14:06:56.997Z,12.80
2023-02-28T14:11:07.377Z,13.65
2023-02-28T14:15:47.086Z,14.68
2023-02-28T14:19:54.070Z,14.07
2023-02-28T14:24:32.619Z,13.38
2023-02-28T14:28:53.751Z,14.38
2023-02-28T14:33:09.229Z,13.85
2023-02-28T14:37:18.861Z,13.35
2023-02-28T14:41:25.117Z,14.63
2023-02-28T14:45:32.247Z,13.07
2023-02-28T14:49:40.572Z,12.93
2023-02-28T14:53:44.274Z,13.23
2023-02-28T14:57:57.534Z,12.02
2023-02-28T15:02:18.834Z,12.93
2023-02-28T15:06:25.148Z,9.25
2023-02-28T15:10:31.836Z,12.32
2023-02-28T15:14:36.045Z,14.60
2023-02-28T15:18:47.311Z,13.10
2023-02-28T15:22:55.325Z,11.18
2023-02-28T15:27:00.940Z,11.05
2023-02-28T15:31:25.410Z,15.60
2023-02-28T15:35:33.709Z,14.57
2023-02-28T15:39:46.364Z,14.65
2023-02-28T15:43:49.568Z,10.52
2023-02-28T15:47:54.718Z,13.00
2023-02-28T15:52:01.010Z,14.05
2023-02-28T15:56:09.665Z,16.55
2023-02-28T16:00:16.789Z,14.70
2023-02-28T16:04:25.176Z,13.88
2023-02-28T16:08:28.961Z,14.15
2023-02-28T16:12:34.773Z,16.35
2023-02-28T16:16:45.573Z,17.50
2023-02-28T16:20:50.380Z,15.82
2023-02-28T16:24:57.469Z,18.27
2023-02-28T16:29:02.731Z,19.42
2023-02-28T16:33:07.662Z,30.05
2023-02-28T16:37:16.775Z,23.35
2023-02-28T16:41:23.491Z,24.40
2023-02-28T16:45:30.108Z,27.08
2023-02-28T16:49:33.735Z,24.33
2023-02-28T16:53:41.992Z,26.42
2023-02-28T16:57:45.931Z,21.08
2023-02-28T17:06:00.893Z,21.52
2023-02-28T17:10:09.715Z,18.40
2023-02-28T17:14:15.337Z,35.38
2023-02-28T17:18:22.409Z,45.58
2023-02-28T17:22:28.687Z,52.03
2023-02-28T17:26:33.155Z,32.53
2023-02-28T17:30:37.128Z,58.53
2023-02-28T17:34:41.813Z,40.75
2023-02-28T17:38:44.939Z,39.28
2023-02-28T17:42:53.467Z,34.83
2023-02-28T17:46:57.420Z,33.30
2023-02-28T17:51:01.691Z,28.45
2023-02-28T17:55:04.896Z,26.80
2023-02-28T17:59:11.568Z,27.63
2023-02-28T18:03:17.610Z,26.88
2023-02-28T18:07:25.310Z,26.08
2023-02-28T18:11:42.539Z,26.75
2023-02-28T18:15:46.025Z,20.90
2023-02-28T18:19:52.660Z,23.70
2023-02-28T18:23:57.477Z,28.20
2023-02-28T18:28:01.054Z,31.65
2023-02-28T18:32:07.265Z,31.85
2023-02-28T18:36:11.408Z,29.77
2023-02-28T18:40:16.356Z,35.38
2023-02-28T18:44:21.218Z,36.95
2023-02-28T18:48:24.911Z,55.40
2023-02-28T18:52:28.401Z,40.78
2023-02-28T18:56:32.799Z,33.67
2023-02-28T19:00:36.286Z,26.83
2023-02-28T19:04:42.286Z,29.35
2023-02-28T19:08:46.290Z,27.75
2023-02-28T19:12:52.833Z,27.42
2023-02-28T19:16:56.228Z,28.42
2023-02-28T19:20:59.970Z,31.60
2023-02-28T19:25:03.261Z,31.88
2023-02-28T19:29:09.345Z,41.83
2023-02-28T19:33:15.002Z,44.35
2023-02-28T19:37:18.178Z,43.72
2023-02-28T19:41:22.060Z,50.75
2023-02-28T19:45:29.572Z,58.90
2023-02-28T19:49:35.734Z,44.53
2023-02-28T19:53:40.810Z,54.50
2023-02-28T19:57:44.558Z,54.33
2023-02-28T20:01:49.236Z,43.50
2023-02-28T20:06:02.118Z,50.88
2023-02-28T20:10:05.791Z,56.80
2023-02-28T20:14:08.886Z,49.97
2023-02-28T20:18:13.478Z,55.10
2023-02-28T20:22:16.780Z,53.13
2023-02-28T20:26:20.366Z,41.40
2023-02-28T20:30:24.326Z,49.75
2023-02-28T20:34:28.962Z,45.75
2023-02-28T20:38:34.755Z,51.55
2023-02-28T20:42:38.065Z,54.33
2023-02-28T20:46:41.562Z,49.33
2023-02-28T20:50:51.420Z,61.10
2023-02-28T20:54:54.615Z,60.83
2023-02-28T20:58:58.416Z,52.97
2023-02-28T21:03:06.261Z,56.50
2023-02-28T21:07:11.026Z,47.92
2023-02-28T21:11:17.392Z,45.33
2023-02-28T21:15:21.757Z,48.70
2023-02-28T21:27:31.928Z,51.95
2023-02-28T21:31:36.502Z,46.72
2023-02-28T21:35:39.726Z,45.55
2023-02-28T21:39:45.785Z,41.45
2023-02-28T21:43:49.972Z,47.42
2023-02-28T21:51:56.436Z,46.00
2023-02-28T21:56:03.450Z,46.30
2023-02-28T22:00:08.413Z,60.58
2023-02-28T22:04:22.355Z,51.55
2023-02-28T22:08:31.092Z,52.25
2023-02-28T22:12:35.910Z,45.58
2023-02-28T22:16:52.259Z,42.70
2023-02-28T22:20:57.319Z,56.70
2023-02-28T22:25:01.123Z,45.33
2023-02-28T22:29:08.655Z,53.75
2023-02-28T22:33:11.684Z,48.92
2023-02-28T22:37:14.908Z,62.28
2023-02-28T22:41:21.563Z,50.92
2023-02-28T22:45:27.717Z,52.25
2023-02-28T22:49:30.960Z,54.05
2023-02-28T22:53:35.834Z,56.28
2023-02-28T22:57:38.998Z,55.10
2023-02-28T23:01:46.053Z,51.90
2023-02-28T23:05:49.528Z,51.38
2023-02-28T23:09:52.075Z,49.38
2023-02-28T23:14:01.173Z,45.75
2023-02-28T23:18:05.680Z,53.45
2023-02-28T23:22:11.197Z,53.10
2023-02-28T23:26:17.221Z,53.42
2023-02-28T23:30:20.540Z,49.90
2023-02-28T23:34:28.281Z,52.72
2023-02-28T23:38:31.421Z,45.53
2023-02-28T23:42:34.536Z,55.70
2023-02-28T23:46:37.894Z,53.13
2023-02-28T23:50:42.868Z,53.55
2023-02-28T23:54:47.122Z,49.05
2023-02-28T23:58:53.422Z,64.75
